Time;durP1;ratioP1;P1;durP2;ratioP2;P2;SDS_P1;SDS_P2;PMS_P1;PMS_P2;Temp;Humidity;BMP_temperature;BMP_pressure;BME280_temperature;BME280_humidity;BME280_pressure;Samples;Min_cycle;Max_cycle;Signal;HPM_P1;HPM_P2
2022/11/15 06:05:28;;;;;;;62.90;30.30;;;;;;;8.95;100.00;100656.34;4945184;28;20265;-75
2022/11/15 06:07:57;;;;;;;59.70;30.15;;;;;;;9.02;100.00;100656.44;4931782;28;20035;-75
2022/11/15 06:10:22;;;;;;;62.05;28.67;;;;;;;9.04;100.00;100653.28;4943238;28;20593;-75
2022/11/15 06:12:58;;;;;;;64.65;29.17;;;;;;;9.04;100.00;100658.88;4991639;23;20069;-75
2022/11/15 06:15:24;;;;;;;69.20;29.92;;;;;;;9.04;100.00;100659.69;4980463;28;20032;-76
2022/11/15 06:17:49;;;;;;;68.50;32.70;;;;;;;9.03;100.00;100658.09;4977856;28;20386;-75
2022/11/15 06:20:15;;;;;;;65.70;29.92;;;;;;;9.05;100.00;100661.31;4982398;28;20034;-75
2022/11/15 06:22:40;;;;;;;61.83;29.40;;;;;;;9.09;100.00;100664.16;4978426;28;20067;-75
2022/11/15 06:25:06;;;;;;;59.22;29.38;;;;;;;9.10;100.00;100660.97;4960945;28;20045;-75
2022/11/15 06:27:31;;;;;;;61.33;30.05;;;;;;;9.09;100.00;100667.75;4980787;28;20268;-75
2022/11/15 06:29:56;;;;;;;68.15;31.70;;;;;;;9.12;100.00;100672.59;4968802;28;20026;-75
2022/11/15 06:32:21;;;;;;;56.88;29.98;;;;;;;9.13;100.00;100673.41;4967634;28;20034;-75
2022/11/15 06:34:47;;;;;;;56.53;30.27;;;;;;;9.12;100.00;100671.78;4971635;28;20026;-75
2022/11/15 06:37:12;;;;;;;54.47;28.00;;;;;;;9.15;100.00;100671.84;4977413;28;20549;-75
2022/11/15 06:39:37;;;;;;;62.78;29.40;;;;;;;9.16;100.00;100673.44;4971511;28;20061;-74
2022/11/15 06:42:03;;;;;;;56.33;28.25;;;;;;;9.16;100.00;100681.81;4973107;28;20095;-75
2022/11/15 06:44:28;;;;;;;64.13;28.10;;;;;;;9.19;100.00;100687.84;4973022;28;20028;-75
2022/11/15 06:46:53;;;;;;;57.78;29.67;;;;;;;9.22;100.00;100687.91;4968534;28;20517;-75
2022/11/15 06:49:19;;;;;;;59.10;29.60;;;;;;;9.22;100.00;100693.50;4974085;28;20033;-75
2022/11/15 06:51:44;;;;;;;62.00;27.58;;;;;;;9.23;100.00;100694.31;4972351;28;20026;-75
2022/11/15 06:54:09;;;;;;;59.03;29.10;;;;;;;9.26;100.00;100688.78;4957273;28;20470;-75
2022/11/15 06:56:35;;;;;;;61.22;27.90;;;;;;;9.27;100.00;100684.81;4962356;28;20033;-74
2022/11/15 06:59:00;;;;;;;57.15;26.60;;;;;;;9.27;100.00;100695.97;4963789;28;22709;-75
2022/11/15 07:01:25;;;;;;;56.75;30.33;;;;;;;9.31;100.00;100696.03;4966482;28;20030;-75
2022/11/15 07:03:51;;;;;;;56.67;27.08;;;;;;;9.29;100.00;100698.41;4931568;28;20039;-74
2022/11/15 07:06:16;;;;;;;33.97;17.83;;;;;;;9.67;100.00;100697.41;4946612;28;20039;-74
2022/11/15 07:08:41;;;;;;;52.00;26.40;;;;;;;9.71;100.00;100712.25;4951327;28;20035;-75
2022/11/15 07:11:08;;;;;;;50.13;26.95;;;;;;;9.65;100.00;100704.56;4946605;28;20085;-75
2022/11/15 07:13:35;;;;;;;51.42;27.77;;;;;;;9.47;100.00;100702.28;4956274;28;20035;-75
2022/11/15 07:16:09;;;;;;;54.17;27.83;;;;;;;9.48;100.00;100700.31;4953878;28;20702;-75
2022/11/15 07:18:36;;;;;;;55.50;28.33;;;;;;;9.47;100.00;100699.50;4950753;28;20494;-75
2022/11/15 07:21:07;;;;;;;60.20;28.30;;;;;;;9.42;100.00;100699.81;4950158;28;20035;-74
2022/11/15 07:23:33;;;;;;;59.30;29.33;;;;;;;9.45;100.00;100690.69;4949491;28;20509;-75
2022/11/15 07:25:58;;;;;;;54.00;27.90;;;;;;;9.48;100.00;100703.91;4953907;28;20034;-75
2022/11/15 07:28:25;;;;;;;60.38;27.70;;;;;;;9.47;100.00;100701.50;4955917;28;20562;-74
2022/11/15 07:30:51;;;;;;;62.42;30.48;;;;;;;9.48;100.00;100700.31;4953100;28;20027;-75
2022/11/15 07:33:16;;;;;;;60.78;29.80;;;;;;;9.50;100.00;100714.69;4962262;28;20070;-75
2022/11/15 07:35:42;;;;;;;67.15;32.42;;;;;;;9.51;100.00;100717.13;4961324;28;20058;-75
2022/11/15 07:38:08;;;;;;;58.78;31.17;;;;;;;9.56;100.00;100716.00;4960408;28;20031;-75
2022/11/15 07:40:34;;;;;;;63.42;29.95;;;;;;;9.50;100.00;100723.09;4968197;28;20034;-76
2022/11/15 07:43:07;;;;;;;68.85;31.52;;;;;;;9.57;100.00;100726.81;4972032;28;20039;-75
2022/11/15 07:45:35;;;;;;;59.47;29.13;;;;;;;9.58;100.00;100722.03;4978761;28;20109;-76
2022/11/15 07:48:01;;;;;;;64.00;31.23;;;;;;;9.63;100.00;100723.69;4973228;28;20057;-75
2022/11/15 07:50:29;;;;;;;68.05;30.95;;;;;;;9.57;100.00;100717.59;4964381;28;20034;-75
2022/11/15 07:52:56;;;;;;;73.20;33.22;;;;;;;9.65;100.00;100718.53;4966720;28;20124;-75
2022/11/15 07:55:27;;;;;;;67.18;31.48;;;;;;;9.70;100.00;100707.84;4968121;28;20102;-75
2022/11/15 07:57:52;;;;;;;68.72;33.08;;;;;;;9.70;100.00;100707.03;4971676;28;20039;-75
2022/11/15 08:00:18;;;;;;;73.72;31.48;;;;;;;9.71;100.00;100700.25;4964428;28;20046;-75
2022/11/15 08:02:44;;;;;;;60.58;32.00;;;;;;;9.72;100.00;100693.50;4965277;28;20042;-75
2022/11/15 08:05:10;;;;;;;66.80;32.03;;;;;;;9.83;100.00;100700.03;4964616;28;20026;-75
2022/11/15 08:07:35;;;;;;;59.90;30.13;;;;;;;9.76;100.00;100700.75;4970584;28;20037;-74
2022/11/15 08:10:05;;;;;;;61.33;30.35;;;;;;;9.81;100.00;100701.63;4976053;28;20031;-76
2022/11/15 08:12:31;;;;;;;63.72;30.40;;;;;;;9.82;100.00;100712.41;4972808;28;20494;-76
2022/11/15 08:14:56;;;;;;;68.72;31.77;;;;;;;9.83;100.00;100716.03;4963897;28;20045;-75
2022/11/15 08:17:24;;;;;;;64.10;31.10;;;;;;;9.82;100.00;100714.41;4963433;28;20402;-74
2022/11/15 08:19:50;;;;;;;64.40;30.23;;;;;;;9.83;100.00;100704.84;4970181;28;21962;-75
2022/11/15 08:22:15;;;;;;;61.33;29.83;;;;;;;9.87;100.00;100711.28;4958975;28;20057;-77
2022/11/15 08:24:41;;;;;;;62.30;29.38;;;;;;;9.82;100.00;100712.41;4975264;28;20109;-77
2022/11/15 08:27:14;;;;;;;57.22;28.65;;;;;;;9.90;100.00;100714.13;4970429;28;20023;-77
2022/11/15 08:29:41;;;;;;;65.15;28.92;;;;;;;9.85;100.00;100714.44;4961655;28;20035;-75
2022/11/15 08:32:07;;;;;;;62.78;29.73;;;;;;;9.82;100.00;100712.41;4974378;28;20023;-76
2022/11/15 08:34:32;;;;;;;63.00;28.98;;;;;;;9.94;100.00;100706.59;4964664;28;20042;-76
2022/11/15 08:36:57;;;;;;;66.25;30.08;;;;;;;9.91;100.00;100706.56;4966083;28;20026;-75
2022/11/15 08:39:22;;;;;;;57.13;28.40;;;;;;;9.98;100.00;100701.06;4952938;28;20038;-75
2022/11/15 08:41:48;;;;;;;66.47;31.60;;;;;;;9.92;100.00;100696.97;4970622;28;20507;-75
2022/11/15 08:44:13;;;;;;;54.13;28.25;;;;;;;9.94;100.00;100698.19;4965514;28;20027;-75
2022/11/15 08:46:38;;;;;;;63.80;30.67;;;;;;;9.98;100.00;100693.47;4972140;28;20037;-75
2022/11/15 08:49:04;;;;;;;54.50;29.73;;;;;;;10.02;100.00;100684.34;4953934;28;20026;-74
2022/11/15 08:51:29;;;;;;;59.38;28.95;;;;;;;10.06;100.00;100682.38;4956251;28;20110;-75
2022/11/15 08:53:54;;;;;;;58.67;28.77;;;;;;;10.07;100.00;100686.78;4956864;28;20054;-75
2022/11/15 08:56:20;;;;;;;62.70;31.13;;;;;;;10.09;100.00;100684.41;4950408;28;20165;-75
2022/11/15 08:58:46;;;;;;;65.30;29.95;;;;;;;10.13;100.00;100691.66;4954957;28;20157;-75
2022/11/15 09:01:20;;;;;;;64.63;29.83;;;;;;;10.14;100.00;100684.06;4951088;28;20038;-75
2022/11/15 09:03:45;;;;;;;56.72;28.27;;;;;;;10.13;100.00;100688.06;4933301;28;20388;-75
2022/11/15 09:06:10;;;;;;;50.03;26.23;;;;;;;10.14;100.00;100686.88;4954530;28;20031;-75
2022/11/15 09:08:35;;;;;;;54.97;27.45;;;;;;;10.10;100.00;100677.66;4956199;28;20037;-75
2022/11/15 09:11:08;;;;;;;47.15;24.65;;;;;;;10.05;100.00;100683.56;4960656;28;20378;-75
2022/11/15 09:13:36;;;;;;;48.75;26.15;;;;;;;10.21;100.00;100680.59;4964162;28;20047;-74
2022/11/15 09:16:02;;;;;;;49.65;26.25;;;;;;;10.20;100.00;100673.38;4958663;28;20368;-75
2022/11/15 09:18:28;;;;;;;55.10;26.73;;;;;;;10.24;100.00;100675.00;4954476;28;20035;-75
2022/11/15 09:20:57;;;;;;;49.28;27.40;;;;;;;10.23;100.00;100673.41;4959443;28;20386;-75
2022/11/15 09:23:24;;;;;;;49.83;26.23;;;;;;;10.25;100.00;100664.66;4959185;28;20014;-75
2022/11/15 09:25:49;;;;;;;52.70;25.42;;;;;;;10.26;100.00;100672.63;4961966;28;20122;-76
2022/11/15 09:28:14;;;;;;;47.90;24.90;;;;;;;10.25;100.00;100662.66;4975342;28;20438;-77
2022/11/15 09:30:40;;;;;;;40.58;22.40;;;;;;;10.21;100.00;100670.19;4972037;28;20031;-75
2022/11/15 09:33:09;;;;;;;44.70;22.25;;;;;;;10.27;100.00;100671.47;4959459;28;20736;-75
2022/11/15 09:35:35;;;;;;;41.33;22.95;;;;;;;10.27;100.00;100674.25;4947007;28;20077;-75
2022/11/15 09:38:01;;;;;;;39.35;22.92;;;;;;;10.28;100.00;100664.69;4971720;28;20103;-76
2022/11/15 09:40:27;;;;;;;44.20;22.15;;;;;;;10.29;100.00;100671.94;4957208;28;20375;-75
2022/11/15 09:43:10;;;;;;;38.83;23.85;;;;;;;10.32;100.00;100664.75;4963443;28;20031;-73
2022/11/15 09:46:05;;;;;;;41.20;22.33;;;;;;;10.32;100.00;100676.75;4956270;28;20301;-73
2022/11/15 09:48:30;;;;;;;40.38;21.00;;;;;;;10.40;100.00;100660.84;4917910;28;20821;-74
2022/11/15 09:50:58;;;;;;;41.22;22.17;;;;;;;10.46;100.00;100658.53;4956375;28;20030;-74
2022/11/15 09:53:52;;;;;;;36.53;21.45;;;;;;;10.40;100.00;100654.47;4959493;28;20391;-74
2022/11/15 09:56:25;;;;;;;39.10;22.00;;;;;;;10.48;100.00;100661.75;4952374;28;20553;-73
2022/11/15 09:59:03;;;;;;;46.95;22.48;;;;;;;10.52;100.00;100668.16;4941575;28;20036;-74
2022/11/15 10:01:41;;;;;;;33.28;19.65;;;;;;;10.54;100.00;100668.59;4949986;28;20026;-73
2022/11/15 10:04:07;;;;;;;35.28;20.95;;;;;;;10.53;100.00;100662.19;4957095;28;20065;-74
2022/11/15 10:06:38;;;;;;;40.03;21.38;;;;;;;10.54;100.00;100660.19;4954956;28;20574;-74
2022/11/15 10:09:24;;;;;;;35.92;20.13;;;;;;;10.57;100.00;100659.44;4959154;28;20413;-74
2022/11/15 10:11:50;;;;;;;32.88;18.75;;;;;;;10.57;100.00;100659.44;4960178;28;20101;-74
2022/11/15 10:14:21;;;;;;;38.88;19.75;;;;;;;10.62;100.00;100656.28;4963941;28;20026;-74
2022/11/15 10:17:11;;;;;;;33.33;17.77;;;;;;;10.63;100.00;100649.53;4952493;28;20644;-73
2022/11/15 10:19:36;;;;;;;28.70;16.00;;;;;;;10.60;100.00;100647.47;4957301;28;20620;-75
2022/11/15 10:22:28;;;;;;;33.92;16.92;;;;;;;10.80;100.00;100644.50;4960255;28;20046;-74
2022/11/15 10:25:16;;;;;;;26.58;16.40;;;;;;;10.76;100.00;100645.25;4944629;28;20027;-74
2022/11/15 10:27:43;;;;;;;29.83;17.05;;;;;;;10.93;100.00;100640.19;4941781;28;20114;-74
2022/11/15 10:30:14;;;;;;;30.98;15.32;;;;;;;11.05;100.00;100633.53;4956768;28;20735;-74
2022/11/15 10:32:42;;;;;;;26.08;15.90;;;;;;;11.19;100.00;100628.84;4959976;28;20294;-74
2022/11/15 10:35:23;;;;;;;25.52;14.65;;;;;;;11.49;100.00;100619.44;4962081;28;20042;-74
2022/11/15 10:37:49;;;;;;;23.20;14.70;;;;;;;11.41;100.00;100625.38;4957198;28;20465;-75
2022/11/15 10:40:24;;;;;;;21.15;13.95;;;;;;;11.34;100.00;100612.09;4958472;28;20030;-74
2022/11/15 10:43:10;;;;;;;26.13;13.77;;;;;;;11.33;100.00;100622.53;4945065;28;20053;-74
2022/11/15 10:45:36;;;;;;;27.20;13.10;;;;;;;11.21;100.00;100619.22;4956164;28;20441;-74
2022/11/15 10:48:11;;;;;;;20.42;13.32;;;;;;;11.23;100.00;100616.84;4949167;28;20430;-74
2022/11/15 10:50:36;;;;;;;23.30;12.88;;;;;;;11.21;100.00;100614.41;4957496;28;20042;-75
2022/11/15 10:53:02;;;;;;;17.73;11.88;;;;;;;11.19;100.00;100617.63;4958106;28;20457;-74
2022/11/15 10:55:31;;;;;;;18.05;11.68;;;;;;;11.31;100.00;100616.50;4939630;28;20569;-74
2022/11/15 10:58:04;;;;;;;17.23;11.88;;;;;;;11.26;100.00;100605.66;4961242;28;20030;-74
2022/11/15 11:00:31;;;;;;;;;;;;;;;11.32;100.00;100606.09;4962043;28;20093;-74
2022/11/15 11:03:02;;;;;;;19.65;11.25;;;;;;;11.23;100.00;100600.03;4954801;28;19919;-74
2022/11/15 11:05:36;;;;;;;19.05;10.15;;;;;;;11.17;100.00;100610.78;4953928;28;20030;-74
2022/11/15 11:08:14;;;;;;;14.90;10.88;;;;;;;11.19;100.00;100606.44;4958679;28;20922;-74
2022/11/15 11:10:52;;;;;;;16.17;10.48;;;;;;;11.21;100.00;100603.22;4960967;28;20574;-73
2022/11/15 11:13:27;;;;;;;17.27;10.00;;;;;;;11.16;100.00;100606.38;4953339;28;20512;-73
2022/11/15 11:16:30;;;;;;;16.10;9.95;;;;;;;11.22;100.00;100587.22;4959492;28;20454;-73
2022/11/15 11:19:15;;;;;;;13.75;9.48;;;;;;;11.18;100.00;100588.00;4950172;28;20482;-73
2022/11/15 11:21:59;;;;;;;13.30;8.60;;;;;;;11.22;100.00;100576.03;4950537;28;20486;-74
2022/11/15 11:24:39;;;;;;;14.38;8.15;;;;;;;11.24;100.00;100574.44;4957735;28;20062;-73
2022/11/15 11:27:32;;;;;;;12.45;8.63;;;;;;;11.15;100.00;100571.97;4956668;28;20084;-73
2022/11/15 11:30:00;;;;;;;17.55;9.88;;;;;;;11.23;100.00;100578.41;4950914;28;20085;-72
2022/11/15 11:32:49;;;;;;;15.48;10.32;;;;;;;11.32;100.00;100564.06;4948275;28;20540;-73
2022/11/15 11:35:25;;;;;;;16.10;10.43;;;;;;;11.38;100.00;100562.50;4941147;28;20423;-73
2022/11/15 11:37:55;;;;;;;15.18;9.02;;;;;;;11.36;100.00;100554.50;4965313;28;20030;-73
2022/11/15 11:40:43;;;;;;;14.30;9.52;;;;;;;11.35;100.00;100563.28;4962835;28;20038;-73
2022/11/15 11:43:17;;;;;;;14.50;8.98;;;;;;;11.36;100.00;100567.69;4964298;28;20034;-73
2022/11/15 11:46:23;;;;;;;14.30;8.45;;;;;;;11.48;100.00;100561.75;4958902;28;20034;-73
2022/11/15 11:48:53;;;;;;;12.57;8.05;;;;;;;11.56;100.00;100549.38;4943317;28;20230;-74
2022/11/15 11:51:26;;;;;;;13.85;8.52;;;;;;;11.51;100.00;100561.00;4955477;28;20058;-74
2022/11/15 11:54:00;;;;;;;10.27;7.35;;;;;;;11.48;100.00;100572.97;4958295;28;20486;-75
2022/11/15 11:56:32;;;;;;;12.35;7.63;;;;;;;11.43;100.00;100564.94;4949318;28;20030;-75
2022/11/15 11:59:10;;;;;;;10.43;6.88;;;;;;;11.43;100.00;100542.53;4960043;28;21669;-75
2022/11/15 12:01:42;;;;;;;11.88;7.53;;;;;;;11.52;100.00;100548.56;4962285;28;20474;-75
2022/11/15 12:04:29;;;;;;;10.73;7.27;;;;;;;11.52;100.00;100540.16;4956904;28;20065;-76
2022/11/15 12:07:08;;;;;;;10.65;6.30;;;;;;;11.52;100.00;100551.38;4953760;28;20030;-75
2022/11/15 12:09:59;;;;;;;11.60;6.32;;;;;;;11.51;100.00;100541.38;4958035;28;20525;-76
2022/11/15 12:13:02;;;;;;;9.25;6.63;;;;;;;11.49;100.00;100535.34;4961967;28;20043;-76
2022/11/15 12:15:36;;;;;;;7.93;6.50;;;;;;;11.59;100.00;100545.00;4959130;28;20066;-75
2022/11/15 12:18:02;;;;;;;12.18;5.90;;;;;;;11.64;100.00;100536.22;4947945;28;20518;-76
2022/11/15 12:20:33;;;;;;;6.80;5.40;;;;;;;11.57;100.00;100542.59;4961024;28;20026;-75
2022/11/15 12:23:21;;;;;;;8.57;5.35;;;;;;;11.56;100.00;100535.38;4958477;28;20618;-75
2022/11/15 12:26:00;;;;;;;7.53;5.47;;;;;;;11.49;100.00;100538.16;4955483;28;20037;-75
2022/11/15 12:28:38;;;;;;;10.02;5.35;;;;;;;11.51;100.00;100532.97;4945076;28;20035;-75
2022/11/15 12:31:29;;;;;;;6.35;4.68;;;;;;;11.50;100.00;100531.34;4958019;28;20478;-76
2022/11/15 12:33:56;;;;;;;5.25;4.07;;;;;;;11.40;100.00;100520.88;4956971;28;20059;-75
2022/11/15 12:36:21;;;;;;;6.40;4.38;;;;;;;11.43;100.00;100520.09;4961544;28;20482;-75
2022/11/15 12:38:54;;;;;;;5.30;4.05;;;;;;;11.50;100.00;100519.34;4958424;28;20059;-76
2022/11/15 12:41:20;;;;;;;5.68;3.80;;;;;;;11.44;100.00;100510.47;4958795;28;20035;-76
2022/11/15 12:43:48;;;;;;;5.97;3.58;;;;;;;11.52;99.72;100500.91;4962634;28;20031;-75
2022/11/15 12:46:44;;;;;;;5.68;2.88;;;;;;;11.50;100.00;100497.72;4957606;28;20038;-75
2022/11/15 12:49:32;;;;;;;5.93;2.95;;;;;;;11.56;99.95;100496.13;4965646;28;20129;-75
2022/11/15 12:51:57;;;;;;;7.07;3.55;;;;;;;11.50;99.08;100491.31;4944259;28;20499;-75
2022/11/15 12:54:23;;;;;;;4.65;2.63;;;;;;;11.46;97.52;100485.66;4947063;28;20139;-75
2022/11/15 12:57:03;;;;;;;5.65;2.90;;;;;;;11.48;98.53;100476.88;4957719;28;20474;-75
2022/11/15 12:59:54;;;;;;;3.08;2.45;;;;;;;11.47;93.93;100478.88;4953745;28;20042;-75
2022/11/15 13:02:27;;;;;;;5.90;2.80;;;;;;;11.41;94.29;100474.06;4957149;28;20519;-74
2022/11/15 13:04:55;;;;;;;4.47;2.35;;;;;;;11.47;94.44;100467.69;4944940;28;20034;-75
2022/11/15 13:07:39;;;;;;;5.07;2.55;;;;;;;11.45;94.31;100472.88;4943992;28;20431;-75
2022/11/15 13:10:10;;;;;;;5.57;2.60;;;;;;;11.44;95.08;100473.25;4961311;28;20034;-75
2022/11/15 13:12:38;;;;;;;5.22;2.67;;;;;;;11.58;92.58;100457.28;4955850;28;20046;-76
2022/11/15 13:15:13;;;;;;;5.05;2.65;;;;;;;11.53;93.83;100457.69;4965022;28;20031;-75
2022/11/15 13:17:52;;;;;;;3.60;2.50;;;;;;;11.43;94.26;100455.66;4948570;28;20483;-74
2022/11/15 13:20:29;;;;;;;4.20;2.72;;;;;;;11.49;93.95;100458.84;4952385;28;20034;-75
2022/11/15 13:23:02;;;;;;;4.28;2.65;;;;;;;11.46;95.23;100451.25;4933368;28;20073;-75
2022/11/15 13:25:36;;;;;;;5.65;2.88;;;;;;;11.42;93.94;100440.00;4955433;28;20109;-75
2022/11/15 13:28:13;;;;;;;3.63;3.20;;;;;;;11.37;94.99;100444.00;4965679;28;20049;-77
2022/11/15 13:30:41;;;;;;;5.82;2.88;;;;;;;11.36;96.44;100441.59;4951386;28;20613;-75
2022/11/15 13:33:41;;;;;;;4.85;3.03;;;;;;;11.32;96.31;100432.38;4954538;28;20130;-75
2022/11/15 13:36:13;;;;;;;3.90;2.03;;;;;;;11.32;94.44;100429.56;4953662;28;20051;-74
2022/11/15 13:38:39;;;;;;;3.25;2.05;;;;;;;11.30;93.97;100435.56;4950223;28;21341;-74
2022/11/15 13:41:18;;;;;;;3.13;1.83;;;;;;;11.30;93.34;100429.16;4960349;28;20038;-74
2022/11/15 13:43:44;;;;;;;3.50;1.92;;;;;;;11.30;91.56;100420.75;4944946;28;20524;-74
2022/11/15 13:46:09;;;;;;;3.55;1.60;;;;;;;11.25;92.27;100429.53;4963972;28;20197;-74
2022/11/15 13:48:35;;;;;;;6.43;2.28;;;;;;;11.19;91.93;100415.94;4962027;28;20034;-73
2022/11/15 13:51:12;;;;;;;3.90;2.25;;;;;;;11.22;91.05;100416.34;4944850;28;20034;-73
2022/11/15 13:53:42;;;;;;;3.42;1.90;;;;;;;11.20;89.45;100402.72;4955769;28;20479;-74
2022/11/15 13:56:08;;;;;;;5.65;1.48;;;;;;;11.20;90.85;100408.31;4957112;28;20027;-74
2022/11/15 13:58:37;;;;;;;3.78;1.50;;;;;;;11.21;90.29;100411.91;4950102;28;20034;-74
2022/11/15 14:01:04;;;;;;;4.47;1.55;;;;;;;11.19;89.47;100407.53;4957896;28;20638;-74
2022/11/15 14:03:33;;;;;;;4.43;1.30;;;;;;;11.15;90.53;100401.09;4953351;28;20057;-74
2022/11/15 14:06:16;;;;;;;4.53;1.92;;;;;;;11.14;93.51;100396.69;4958781;28;20071;-73
2022/11/15 14:08:58;;;;;;;4.82;2.15;;;;;;;11.11;91.38;100388.25;4961045;28;20031;-74
2022/11/15 14:11:24;;;;;;;4.15;1.63;;;;;;;11.06;91.15;100392.25;4959592;28;21617;-74
2022/11/15 14:14:07;;;;;;;2.58;1.40;;;;;;;11.13;89.70;100389.50;4957217;28;20058;-74
2022/11/15 14:16:44;;;;;;;6.07;1.92;;;;;;;11.08;93.05;100387.03;4959804;28;20049;-75
2022/11/15 14:19:12;;;;;;;5.10;1.60;;;;;;;11.05;91.49;100373.84;4965922;28;20038;-74
2022/11/15 14:22:09;;;;;;;3.47;1.40;;;;;;;11.06;91.13;100375.44;4956741;28;20038;-74
2022/11/15 14:24:35;;;;;;;5.40;2.05;;;;;;;10.99;91.40;100373.41;4960942;28;20035;-74
2022/11/15 14:27:25;;;;;;;2.15;1.35;;;;;;;11.01;92.79;100369.44;4966148;28;20513;-74
2022/11/15 14:29:51;;;;;;;4.28;1.95;;;;;;;10.99;94.06;100361.41;4962100;28;20475;-74
2022/11/15 14:32:22;;;;;;;6.18;2.00;;;;;;;10.95;92.17;100363.38;4960414;28;20140;-75
2022/11/15 14:34:59;;;;;;;3.60;1.52;;;;;;;10.92;92.74;100352.97;4958633;28;20049;-74
2022/11/15 14:37:27;;;;;;;3.17;2.00;;;;;;;10.99;92.00;100351.00;4966331;28;20034;-74
2022/11/15 14:39:54;;;;;;;2.78;1.60;;;;;;;10.97;95.27;100347.78;4962828;28;20034;-75
2022/11/15 14:42:21;;;;;;;3.25;1.95;;;;;;;10.85;94.04;100338.94;4943066;28;20022;-75
2022/11/15 14:44:47;;;;;;;3.53;1.88;;;;;;;10.81;93.62;100344.50;4966336;28;20123;-75
2022/11/15 14:47:13;;;;;;;6.18;3.15;;;;;;;10.80;93.96;100344.94;4959834;28;20106;-74
2022/11/15 14:49:38;;;;;;;5.03;2.20;;;;;;;10.76;96.10;100342.09;4947102;28;20165;-75
2022/11/15 14:52:16;;;;;;;4.47;2.40;;;;;;;10.73;95.65;100331.69;4964356;28;20446;-75
2022/11/15 14:54:41;;;;;;;5.40;2.10;;;;;;;10.71;98.17;100334.88;4959285;28;20023;-75
2022/11/15 14:57:07;;;;;;;4.18;3.08;;;;;;;10.70;95.78;100327.66;4963638;28;20034;-74
2022/11/15 14:59:32;;;;;;;5.50;2.58;;;;;;;10.70;96.62;100315.69;4957994;28;20074;-75
2022/11/15 15:01:58;;;;;;;5.00;2.97;;;;;;;10.64;96.75;100320.84;4958828;28;20492;-74
2022/11/15 15:04:24;;;;;;;8.43;2.75;;;;;;;10.87;95.52;100319.75;4968955;28;20062;-75
2022/11/15 15:06:49;;;;;;;5.40;2.92;;;;;;;10.71;97.16;100318.09;4976192;28;20033;-76
2022/11/15 15:09:14;;;;;;;4.63;2.97;;;;;;;10.65;97.17;100313.25;4960279;28;20078;-76
2022/11/15 15:11:40;;;;;;;12.02;3.50;;;;;;;10.63;96.53;100305.25;4976883;28;20039;-78
2022/11/15 15:14:05;;;;;;;3.88;2.65;;;;;;;10.66;97.89;100309.25;4958711;28;20393;-76
2022/11/15 15:16:30;;;;;;;8.35;3.88;;;;;;;10.61;96.57;100302.03;4956355;28;20435;-76
2022/11/15 15:18:56;;;;;;;6.88;3.60;;;;;;;10.55;96.68;100298.81;4959533;28;20037;-75
2022/11/15 15:21:27;;;;;;;8.13;2.92;;;;;;;10.53;99.19;100292.00;4962656;28;20299;-75
2022/11/15 15:23:55;;;;;;;4.18;2.95;;;;;;;10.48;97.27;100293.19;4960117;28;20034;-75
2022/11/15 15:26:23;;;;;;;9.20;4.05;;;;;;;10.47;96.45;100285.19;4959460;28;20042;-75
2022/11/15 15:28:48;;;;;;;5.35;2.70;;;;;;;10.49;96.34;100280.00;4960034;28;20029;-76
2022/11/15 15:31:13;;;;;;;5.30;3.03;;;;;;;10.50;97.16;100276.81;4958083;28;20035;-76
2022/11/15 15:33:39;;;;;;;6.68;3.17;;;;;;;10.49;97.53;100280.78;4953297;28;20035;-75
2022/11/15 15:36:05;;;;;;;6.80;3.00;;;;;;;10.52;98.45;100268.00;4960592;28;20422;-75
2022/11/15 15:38:32;;;;;;;5.85;3.05;;;;;;;10.47;95.42;100258.00;4957937;28;20402;-75
2022/11/15 15:40:59;;;;;;;5.68;3.10;;;;;;;10.47;95.77;100257.19;4959419;28;20034;-76
2022/11/15 15:43:24;;;;;;;6.72;3.05;;;;;;;10.47;97.51;100251.59;4959277;28;20031;-76
2022/11/15 15:45:50;;;;;;;5.30;3.47;;;;;;;10.49;95.32;100249.22;4963182;28;20385;-75
2022/11/15 15:48:16;;;;;;;6.20;3.55;;;;;;;10.50;95.81;100251.63;4941235;28;20490;-76
2022/11/15 15:50:45;;;;;;;4.82;2.88;;;;;;;10.47;94.66;100248.81;4959012;28;20035;-75
2022/11/15 15:53:12;;;;;;;7.32;3.13;;;;;;;10.48;94.39;100247.63;4938486;28;20042;-76
2022/11/15 15:55:38;;;;;;;4.07;2.42;;;;;;;10.50;97.29;100240.44;4962195;28;20039;-76
2022/11/15 15:58:04;;;;;;;7.70;2.85;;;;;;;10.49;99.39;100236.03;4959512;28;20367;-75
2022/11/15 16:00:32;;;;;;;4.95;3.03;;;;;;;10.48;95.17;100236.44;4955255;28;20034;-75
2022/11/15 16:02:58;;;;;;;6.43;3.15;;;;;;;10.46;95.20;100234.03;4952635;28;20532;-76
2022/11/15 16:05:24;;;;;;;5.43;3.50;;;;;;;10.49;95.23;100236.03;4958453;28;20031;-75
2022/11/15 16:07:49;;;;;;;6.13;3.22;;;;;;;10.46;92.09;100220.03;4957988;28;20622;-76
2022/11/15 16:10:44;;;;;;;5.13;2.80;;;;;;;10.63;90.59;100218.50;4939789;28;20027;-75
2022/11/15 16:13:09;;;;;;;10.70;3.28;;;;;;;10.56;95.30;100215.66;4947014;28;20062;-75
2022/11/15 16:15:35;;;;;;;7.60;2.90;;;;;;;10.53;91.84;100213.66;4951670;28;20035;-75
2022/11/15 16:18:01;;;;;;;5.45;2.70;;;;;;;10.57;92.65;100218.06;4961174;28;20042;-75
2022/11/15 16:20:45;;;;;;;6.38;2.88;;;;;;;10.60;94.26;100208.06;4954083;28;20023;-75
2022/11/15 16:23:13;;;;;;;6.57;3.75;;;;;;;10.55;92.88;100216.84;4938920;28;20146;-74
2022/11/15 16:25:49;;;;;;;5.90;2.60;;;;;;;10.57;90.50;100206.06;4960601;28;20117;-75
2022/11/15 16:28:26;;;;;;;5.53;2.60;;;;;;;10.54;89.63;100202.06;4957023;28;20391;-74
2022/11/15 16:31:11;;;;;;;6.53;3.38;;;;;;;10.54;91.87;100201.25;4959515;28;20031;-75
2022/11/15 16:33:37;;;;;;;5.63;2.67;;;;;;;11.10;88.79;100208.19;4950508;28;20723;-76
2022/11/15 16:36:04;;;;;;;7.07;2.83;;;;;;;10.76;88.20;100194.53;4957299;28;20155;-75
2022/11/15 16:38:30;;;;;;;7.00;2.97;;;;;;;10.95;91.77;100198.97;4950177;28;20061;-74
2022/11/15 16:40:55;;;;;;;7.03;2.63;;;;;;;10.95;88.97;100198.19;4950729;28;20039;-76
2022/11/15 16:43:21;;;;;;;3.42;2.20;;;;;;;10.72;89.18;100193.72;4947545;28;20045;-75
2022/11/15 16:45:46;;;;;;;6.15;3.28;;;;;;;10.68;87.69;100184.50;4934250;28;20955;-74
2022/11/15 16:48:29;;;;;;;4.30;2.70;;;;;;;10.65;92.91;100190.91;4945074;28;20057;-75
2022/11/15 16:50:56;;;;;;;3.75;2.25;;;;;;;10.64;87.74;100178.09;4944851;28;20154;-75
2022/11/15 16:53:22;;;;;;;3.55;2.55;;;;;;;10.62;90.01;100179.69;4945958;28;20490;-75
2022/11/15 16:55:48;;;;;;;6.65;3.55;;;;;;;10.60;87.87;100177.28;4934060;28;20066;-74
2022/11/15 16:58:13;;;;;;;3.42;2.30;;;;;;;10.62;89.06;100174.91;4938784;28;20027;-75
2022/11/15 17:00:38;;;;;;;9.77;2.28;;;;;;;10.65;89.13;100176.91;4932933;28;20031;-74
2022/11/15 17:03:04;;;;;;;2.88;2.30;;;;;;;10.62;88.01;100169.31;4953602;28;20043;-75
2022/11/15 17:05:29;;;;;;;4.47;2.35;;;;;;;10.57;90.00;100175.28;4939117;28;20117;-75
2022/11/15 17:07:55;;;;;;;5.30;2.65;;;;;;;10.60;87.86;100174.50;4947074;28;20031;-74
2022/11/15 17:10:21;;;;;;;6.40;3.45;;;;;;;10.62;88.43;100169.31;4952417;28;20098;-74
2022/11/15 17:12:47;;;;;;;5.22;2.60;;;;;;;10.65;88.29;100168.53;4956743;28;20047;-75
2022/11/15 17:15:13;;;;;;;4.25;2.28;;;;;;;10.60;87.74;100163.28;4953197;28;20854;-74
2022/11/15 17:17:39;;;;;;;3.88;1.98;;;;;;;10.64;86.78;100158.50;4959638;28;20037;-75
2022/11/15 17:20:08;;;;;;;4.80;2.17;;;;;;;10.62;90.06;100158.09;4967185;28;20267;-74
2022/11/15 17:22:35;;;;;;;3.75;2.38;;;;;;;10.62;87.42;100158.09;4956007;28;20046;-75
2022/11/15 17:25:00;;;;;;;5.55;2.63;;;;;;;10.65;86.78;100151.72;4957986;28;20742;-75
2022/11/15 17:27:26;;;;;;;3.72;2.35;;;;;;;10.68;86.73;100156.53;4935906;28;20050;-74
2022/11/15 17:29:51;;;;;;;5.00;2.60;;;;;;;10.64;88.26;100158.50;4952785;28;20023;-73
2022/11/15 17:32:17;;;;;;;5.72;2.20;;;;;;;10.64;87.96;100161.31;4950994;28;20030;-74
2022/11/15 17:34:42;;;;;;;3.83;2.17;;;;;;;10.87;92.93;100152.56;4951107;28;20027;-73